Yukon, Oklahoma
Current Conditions -  °F | °C
As of 5:15 AM on Tuesday 21 Oct 2014 (Local Time) from KRCE Reporting Station
Broken Clouds Broken Clouds  
Wind Chill: 61°   Ceiling: 6000
Heat Index: 61°   Visibility: NA
Dew Point: 59°   Wind: 3mph
Humidity: 94%   Direction: 210°SSW
Pressure: 30.08"   Gusts: NA
Location:  35.51°N, 97.74°W
Report Text: KRCE 211015Z AUTO 21003KT BKN060 16/15 A3008 RMK AO2
Loading
Personal Weather Stations






























Interactive Weather Map
Tropical Storm Tracking
New forecast layout! Learn more

10-Day Weather Forecast

Advertisements
Track Severe Weather on mobile